Time;durP1;ratioP1;P1;durP2;ratioP2;P2;SDS_P1;SDS_P2;PMS_P1;PMS_P2;Temp;Humidity;BMP_temperature;BMP_pressure;BME280_temperature;BME280_humidity;BME280_pressure;Samples;Min_cycle;Max_cycle;Signal;HPM_P1;HPM_P2
2022/08/17 00:01:06;;;;;;;32.27;24.73;;;20.00;84.10;;;;;;4901969;29;20047;-68
2022/08/17 00:03:38;;;;;;;34.30;25.90;;;20.00;84.00;;;;;;4928432;29;20082;-67
2022/08/17 00:06:13;;;;;;;34.53;26.37;;;20.00;84.00;;;;;;4902246;29;20131;-68
2022/08/17 00:08:45;;;;;;;36.07;27.20;;;19.90;84.00;;;;;;4924439;29;20102;-68
2022/08/17 00:11:21;;;;;;;41.03;28.00;;;19.90;84.20;;;;;;4922163;29;20118;-67
2022/08/17 00:13:49;;;;;;;33.27;25.93;;;19.90;84.20;;;;;;4924186;29;20132;-67
2022/08/17 00:16:23;;;;;;;35.40;26.73;;;19.90;84.40;;;;;;4921157;29;20075;-68
2022/08/17 00:18:50;;;;;;;38.53;27.80;;;19.80;84.50;;;;;;4943326;28;20066;-67
2022/08/17 00:21:19;;;;;;;36.00;27.43;;;19.80;84.30;;;;;;4944599;28;20422;-67
2022/08/17 00:23:46;;;;;;;37.17;27.73;;;19.70;84.50;;;;;;4912439;29;20055;-67
2022/08/17 00:26:12;;;;;;;37.37;29.23;;;19.70;84.60;;;;;;4890085;29;20378;-67
2022/08/17 00:28:39;;;;;;;34.30;27.13;;;19.70;84.80;;;;;;4910981;29;20051;-67
2022/08/17 00:31:06;;;;;;;33.40;26.60;;;19.70;84.90;;;;;;4921135;29;20454;-68
2022/08/17 00:33:32;;;;;;;37.03;27.73;;;19.70;85.40;;;;;;4942001;28;20048;-68
2022/08/17 00:35:59;;;;;;;39.17;28.40;;;19.70;85.50;;;;;;4946070;29;20052;-67
2022/08/17 00:38:27;;;;;;;38.20;28.43;;;19.70;85.40;;;;;;4907110;29;20071;-67
2022/08/17 00:40:59;;;;;;;38.87;28.60;;;19.80;85.40;;;;;;4912566;29;20079;-67
2022/08/17 00:43:33;;;;;;;40.37;28.67;;;19.70;85.30;;;;;;4900134;29;20044;-67
2022/08/17 00:46:03;;;;;;;39.63;28.60;;;19.70;85.30;;;;;;4928023;29;20540;-67
2022/08/17 00:48:29;;;;;;;41.07;28.13;;;19.70;85.40;;;;;;4927242;29;20052;-67
2022/08/17 00:51:14;;;;;;;41.20;28.17;;;19.70;85.50;;;;;;4936669;28;20043;-67
2022/08/17 00:53:44;;;;;;;40.35;29.77;;;19.70;85.70;;;;;;4922617;29;20072;-67
2022/08/17 00:56:21;;;;;;;37.93;28.30;;;19.70;85.50;;;;;;4905186;29;20411;-67
2022/08/17 00:58:50;;;;;;;34.30;26.57;;;19.60;85.60;;;;;;4929023;29;20603;-67
2022/08/17 01:01:16;;;;;;;37.80;27.77;;;19.60;85.70;;;;;;4924361;29;20508;-67
2022/08/17 01:03:42;;;;;;;39.67;29.93;;;19.60;85.80;;;;;;4922082;29;20099;-67
2022/08/17 01:06:08;;;;;;;36.20;28.73;;;19.60;86.00;;;;;;4924572;29;20039;-67
2022/08/17 01:08:35;;;;;;;36.67;27.63;;;19.50;86.20;;;;;;4929322;29;20484;-67
2022/08/17 01:11:02;;;;;;;36.87;28.07;;;19.50;86.10;;;;;;4925731;29;20052;-67
2022/08/17 01:13:36;;;;;;;37.77;28.37;;;19.50;86.10;;;;;;4919269;29;20464;-67
2022/08/17 01:16:15;;;;;;;37.73;28.60;;;19.50;86.30;;;;;;4905036;29;20203;-67
2022/08/17 01:18:43;;;;;;;38.57;29.10;;;19.40;86.50;;;;;;4927589;29;20727;-67
2022/08/17 01:21:39;;;;;;;34.80;27.37;;;19.40;86.80;;;;;;4927811;29;20448;-67
2022/08/17 01:24:05;;;;;;;36.33;28.27;;;19.40;86.50;;;;;;4921063;29;20048;-67
2022/08/17 01:26:33;;;;;;;39.67;30.03;;;19.40;86.40;;;;;;4916992;29;20732;-67
2022/08/17 01:29:00;;;;;;;37.10;28.70;;;19.40;86.60;;;;;;4912286;29;20395;-67
2022/08/17 01:31:31;;;;;;;38.70;29.07;;;19.40;86.60;;;;;;4924379;29;20044;-68
2022/08/17 01:34:00;;;;;;;40.43;30.30;;;19.40;86.70;;;;;;4923872;29;20065;-67
2022/08/17 01:36:27;;;;;;;37.27;28.53;;;19.30;86.80;;;;;;4908485;29;20378;-68
2022/08/17 01:38:52;;;;;;;39.33;28.40;;;19.30;86.70;;;;;;4906531;29;20079;-67
2022/08/17 01:41:20;;;;;;;42.20;30.87;;;19.30;86.90;;;;;;4911630;29;20059;-68
2022/08/17 01:44:04;;;;;;;38.77;28.73;;;19.30;86.70;;;;;;4928343;29;20523;-68
2022/08/17 01:46:35;;;;;;;43.37;31.57;;;19.20;86.80;;;;;;4910101;29;20552;-68
2022/08/17 01:49:06;;;;;;;40.93;31.17;;;19.20;86.90;;;;;;4919288;29;20370;-66
2022/08/17 01:51:33;;;;;;;44.83;31.93;;;19.10;86.90;;;;;;4920750;29;20336;-66
2022/08/17 01:54:03;;;;;;;47.67;33.50;;;19.10;86.90;;;;;;4912938;29;20083;-66
2022/08/17 01:56:32;;;;;;;45.03;32.30;;;19.00;86.90;;;;;;4919588;29;20075;-66
2022/08/17 01:58:57;;;;;;;49.87;35.63;;;19.00;87.10;;;;;;4914055;29;20287;-66
2022/08/17 02:01:26;;;;;;;52.23;36.10;;;19.00;87.20;;;;;;4952078;28;20292;-66
2022/08/17 02:03:53;;;;;;;46.93;33.80;;;19.00;87.40;;;;;;4907358;29;20396;-66
2022/08/17 02:06:19;;;;;;;49.60;35.00;;;19.00;87.70;;;;;;4926235;29;20287;-66
2022/08/17 02:08:46;;;;;;;49.80;36.80;;;18.90;87.60;;;;;;4925728;29;20306;-66
2022/08/17 02:11:17;;;;;;;50.37;35.03;;;18.90;87.80;;;;;;4911498;29;20131;-67
2022/08/17 02:13:44;;;;;;;50.90;34.70;;;18.90;87.80;;;;;;4920175;29;20872;-66
2022/08/17 02:16:10;;;;;;;52.83;35.63;;;18.80;87.90;;;;;;4924508;29;20303;-66
2022/08/17 02:18:35;;;;;;;47.97;33.87;;;18.90;88.30;;;;;;4926320;29;20283;-67
2022/08/17 02:21:02;;;;;;;52.37;34.93;;;18.80;88.10;;;;;;4919096;29;20688;-66
2022/08/17 02:23:31;;;;;;;47.60;33.60;;;18.80;88.30;;;;;;4925057;29;20512;-66
2022/08/17 02:25:58;;;;;;;50.53;36.63;;;18.80;88.20;;;;;;4912092;29;20284;-66
2022/08/17 02:28:24;;;;;;;50.30;36.03;;;18.80;88.40;;;;;;4911607;29;20693;-66
2022/08/17 02:30:50;;;;;;;48.37;33.90;;;18.80;88.40;;;;;;4919876;29;20303;-66
2022/08/17 02:33:16;;;;;;;51.57;36.13;;;18.70;88.30;;;;;;4925377;29;20566;-66
2022/08/17 02:35:41;;;;;;;49.30;33.80;;;18.70;88.40;;;;;;4926256;29;20040;-66
2022/08/17 02:38:08;;;;;;;45.73;34.00;;;18.60;88.70;;;;;;4924843;29;20131;-67
2022/08/17 02:40:34;;;;;;;47.33;34.93;;;18.60;88.60;;;;;;4912000;29;20074;-66
2022/08/17 02:43:00;;;;;;;49.57;33.83;;;18.60;88.80;;;;;;4919338;29;20362;-66
2022/08/17 02:45:26;;;;;;;49.37;34.13;;;18.50;88.80;;;;;;4903802;29;20689;-66
2022/08/17 02:47:52;;;;;;;48.27;33.93;;;18.50;89.10;;;;;;4915116;29;20551;-66
2022/08/17 02:50:21;;;;;;;51.23;35.70;;;18.50;88.90;;;;;;4919613;29;20832;-66
2022/08/17 02:52:47;;;;;;;48.23;34.87;;;18.50;89.10;;;;;;4914822;29;20401;-66
2022/08/17 02:55:27;;;;;;;48.27;33.90;;;18.50;89.00;;;;;;4899273;29;20284;-66
2022/08/17 02:57:54;;;;;;;50.23;35.00;;;18.50;89.20;;;;;;4923923;29;20824;-66
2022/08/17 03:00:34;;;;;;;49.93;35.90;;;18.60;89.20;;;;;;4923533;29;20851;-67
2022/08/17 03:03:00;;;;;;;50.70;34.23;;;18.60;89.50;;;;;;4913157;29;20287;-66
2022/08/17 03:05:28;;;;;;;49.13;36.10;;;18.60;89.40;;;;;;4921041;29;20303;-66
2022/08/17 03:07:54;;;;;;;50.87;35.57;;;18.60;89.60;;;;;;4929156;29;20278;-66
2022/08/17 03:10:21;;;;;;;50.43;34.20;;;18.60;89.70;;;;;;4932167;29;20444;-66
2022/08/17 03:12:47;;;;;;;50.17;35.67;;;18.60;89.40;;;;;;4907780;29;20036;-66
2022/08/17 03:15:22;;;;;;;48.93;35.07;;;18.60;89.80;;;;;;4925780;29;20283;-66
2022/08/17 03:17:48;;;;;;;47.10;34.30;;;18.60;89.80;;;;;;4920831;29;20288;-66
2022/08/17 03:20:17;;;;;;;48.43;34.53;;;18.60;90.10;;;;;;4907192;29;20322;-66
2022/08/17 03:22:50;;;;;;;47.67;34.10;;;18.60;90.00;;;;;;4928218;29;20051;-66
2022/08/17 03:25:37;;;;;;;57.80;35.33;;;18.60;90.10;;;;;;4923860;29;20386;-66
2022/08/17 03:28:04;;;;;;;55.50;34.37;;;18.60;90.60;;;;;;4919861;29;20288;-66
2022/08/17 03:30:31;;;;;;;50.30;33.70;;;18.60;90.20;;;;;;4922422;29;20657;-66
2022/08/17 03:32:59;;;;;;;51.53;33.33;;;18.70;90.20;;;;;;4911445;29;20287;-66
2022/08/17 03:35:29;;;;;;;50.53;34.13;;;18.70;90.20;;;;;;4910392;29;20355;-66
2022/08/17 03:37:55;;;;;;;45.33;31.47;;;18.70;90.50;;;;;;4920548;29;20283;-66
2022/08/17 03:40:21;;;;;;;47.87;32.53;;;18.70;90.50;;;;;;4924345;29;20287;-66
2022/08/17 03:42:47;;;;;;;42.27;31.60;;;18.70;90.50;;;;;;4923933;29;20751;-67
2022/08/17 03:45:16;;;;;;;46.73;30.33;;;18.70;90.60;;;;;;4905666;29;20101;-66
2022/08/17 03:58:46;;;;;;;43.17;32.60;;;18.70;90.30;;;;;;4944729;28;20120;-66
2022/08/17 04:01:13;;;;;;;52.83;36.17;;;18.70;90.40;;;;;;4911669;29;20292;-66
2022/08/17 04:03:38;;;;;;;57.53;39.47;;;18.70;90.40;;;;;;4930647;29;20040;-66
2022/08/17 04:06:05;;;;;;;68.53;36.47;;;18.70;90.50;;;;;;4933767;29;20533;-66
2022/08/17 04:08:31;;;;;;;48.77;34.90;;;18.70;90.60;;;;;;4943353;29;20048;-66
2022/08/17 04:10:57;;;;;;;44.37;32.93;;;18.70;90.60;;;;;;4925039;29;20379;-66
2022/08/17 04:13:23;;;;;;;45.67;33.57;;;18.70;90.30;;;;;;4925897;29;20295;-67
2022/08/17 04:15:49;;;;;;;49.63;36.57;;;18.70;90.40;;;;;;4914376;29;20819;-67
2022/08/17 04:18:16;;;;;;;56.73;40.87;;;18.70;90.50;;;;;;4906880;29;20055;-66
2022/08/17 04:20:42;;;;;;;54.13;35.73;;;18.70;90.30;;;;;;4922545;29;20383;-66
2022/08/17 04:23:12;;;;;;;43.37;32.63;;;18.70;90.40;;;;;;4941331;29;20829;-66
2022/08/17 04:25:41;;;;;;;42.83;31.33;;;18.70;90.30;;;;;;4923383;29;20315;-67
2022/08/17 04:28:06;;;;;;;49.70;32.47;;;18.70;90.30;;;;;;4923089;29;20364;-66
2022/08/17 04:30:36;;;;;;;43.40;29.87;;;18.70;90.20;;;;;;4900375;29;20725;-66
2022/08/17 04:33:09;;;;;;;42.50;31.30;;;18.70;90.30;;;;;;4929221;29;20073;-67
2022/08/17 04:35:40;;;;;;;43.20;30.13;;;18.70;90.50;;;;;;4930481;29;20283;-66
2022/08/17 04:38:07;;;;;;;38.93;29.93;;;18.80;90.50;;;;;;4915429;29;20107;-66
2022/08/17 04:43:20;;;;;;;41.43;30.30;;;18.80;90.50;;;;;;4921179;29;20119;-66
2022/08/17 04:45:55;;;;;;;41.73;29.73;;;18.90;90.40;;;;;;4921968;29;20075;-66
2022/08/17 04:48:21;;;;;;;42.30;29.07;;;18.90;90.40;;;;;;4907929;29;20526;-67
2022/08/17 04:50:49;;;;;;;40.57;28.50;;;18.90;90.40;;;;;;4919741;29;20127;-67
2022/08/17 04:53:16;;;;;;;44.27;28.73;;;18.90;90.30;;;;;;4930451;29;20063;-66
2022/08/17 04:55:42;;;;;;;44.93;30.63;;;18.90;90.30;;;;;;4911670;29;20130;-67
2022/08/17 04:58:08;;;;;;;44.77;28.47;;;18.90;90.20;;;;;;4912267;29;20496;-67
2022/08/17 05:00:35;;;;;;;47.00;27.13;;;18.80;90.10;;;;;;4909559;29;20103;-67
2022/08/17 05:03:00;;;;;;;42.07;26.30;;;18.80;90.00;;;;;;4925099;29;20050;-66
2022/08/17 05:05:30;;;;;;;34.70;27.83;;;18.70;89.90;;;;;;4905656;29;20396;-66
2022/08/17 05:08:01;;;;;;;47.53;28.43;;;18.70;90.00;;;;;;4929186;29;20043;-66
2022/08/17 05:10:31;;;;;;;44.57;28.03;;;18.70;90.00;;;;;;4931682;29;20050;-66
2022/08/17 05:13:04;;;;;;;45.27;26.70;;;18.70;90.00;;;;;;4923510;29;20298;-67
2022/08/17 05:15:32;;;;;;;55.43;30.33;;;18.70;90.40;;;;;;4928173;29;20036;-68
2022/08/17 05:17:58;;;;;;;48.70;27.03;;;18.60;90.60;;;;;;4930919;29;20126;-68
2022/08/17 05:20:24;;;;;;;58.17;30.00;;;18.60;91.20;;;;;;4912261;29;20166;-68
2022/08/17 05:22:52;;;;;;;55.77;31.67;;;18.40;92.20;;;;;;4928393;29;20374;-68
2022/08/17 05:25:21;;;;;;;51.03;30.10;;;18.30;92.50;;;;;;4912563;29;20126;-68
2022/08/17 05:27:47;;;;;;;59.73;31.17;;;18.30;92.60;;;;;;4921686;29;20400;-68
2022/08/17 05:30:14;;;;;;;57.33;30.33;;;18.40;92.60;;;;;;4915765;29;20308;-68
2022/08/17 05:32:52;;;;;;;40.73;28.73;;;18.40;92.70;;;;;;4904111;29;20042;-68
2022/08/17 05:35:18;;;;;;;41.23;29.77;;;18.40;92.70;;;;;;4924405;29;20413;-68
2022/08/17 05:37:43;;;;;;;41.80;29.10;;;18.50;92.60;;;;;;4907507;29;20450;-68
2022/08/17 05:40:10;;;;;;;49.70;33.07;;;18.50;92.80;;;;;;4926875;29;20137;-68
2022/08/17 05:42:35;;;;;;;51.83;31.83;;;18.50;92.60;;;;;;4927172;29;20091;-68
2022/08/17 05:45:01;;;;;;;58.40;31.97;;;18.50;92.70;;;;;;4920233;29;20037;-68
2022/08/17 05:47:29;;;;;;;53.30;31.40;;;18.50;92.90;;;;;;4921607;29;20123;-68
2022/08/17 05:49:55;;;;;;;54.17;32.10;;;18.50;93.00;;;;;;4913771;29;20048;-67
2022/08/17 05:52:46;;;;;;;45.17;31.57;;;18.60;93.10;;;;;;4905338;29;20375;-68
2022/08/17 05:55:24;;;;;;;47.50;32.17;;;18.60;93.10;;;;;;4905661;29;20058;-68
2022/08/17 05:58:35;;;;;;;45.37;33.70;;;18.70;93.10;;;;;;4925997;29;20054;-67
2022/08/17 06:01:28;;;;;;;45.37;32.97;;;18.80;93.30;;;;;;4887256;29;20516;-68
2022/08/17 06:04:10;;;;;;;49.00;33.00;;;18.90;93.10;;;;;;4919824;29;20835;-68
2022/08/17 06:06:51;;;;;;;46.60;32.50;;;18.90;92.60;;;;;;4924215;29;20671;-68
2022/08/17 06:09:49;;;;;;;46.93;31.67;;;19.00;92.50;;;;;;4923218;29;20063;-67
2022/08/17 06:12:23;;;;;;;48.90;32.70;;;19.10;92.40;;;;;;4922267;29;20048;-68
2022/08/17 06:15:14;;;;;;;52.35;34.40;;;19.10;92.30;;;;;;4910335;29;20055;-68
2022/08/17 06:17:41;;;;;;;49.77;33.17;;;19.10;92.10;;;;;;4922428;29;20082;-68
2022/08/17 06:20:14;;;;;;;50.63;33.07;;;19.10;92.00;;;;;;4922026;29;20122;-68
2022/08/17 06:22:54;;;;;;;47.27;32.63;;;19.20;92.10;;;;;;4912002;29;20039;-67
2022/08/17 06:25:38;;;;;;;55.37;35.23;;;19.20;92.10;;;;;;4930314;28;20046;-68
2022/08/17 06:28:09;;;;;;;55.60;35.80;;;19.20;92.30;;;;;;4908340;28;20053;-68
2022/08/17 06:31:05;;;;;;;50.83;33.87;;;19.20;92.00;;;;;;4927336;29;20043;-68
2022/08/17 06:33:35;;;;;;;51.10;34.67;;;19.30;92.00;;;;;;4927199;29;20290;-68
2022/08/17 06:36:33;;;;;;;56.10;36.40;;;19.30;92.10;;;;;;4923358;29;20472;-69
2022/08/17 06:38:58;;;;;;;51.50;35.00;;;19.40;92.10;;;;;;4905133;29;20341;-70
2022/08/17 06:41:39;;;;;;;52.23;34.27;;;19.40;92.30;;;;;;4926393;28;20129;-70
2022/08/17 06:44:16;;;;;;;52.97;35.13;;;19.50;92.60;;;;;;4923984;29;20047;-70
2022/08/17 06:46:55;;;;;;;51.10;34.80;;;19.50;92.50;;;;;;4858474;29;20142;-69
2022/08/17 06:49:55;;;;;;;51.23;35.50;;;19.60;92.20;;;;;;4884458;29;20048;-69
2022/08/17 06:52:26;;;;;;;50.43;33.67;;;19.60;92.20;;;;;;4917991;28;20154;-69
2022/08/17 06:54:57;;;;;;;49.63;35.20;;;19.60;91.90;;;;;;4913217;29;20524;-69
2022/08/17 06:57:27;;;;;;;52.17;35.40;;;19.60;91.90;;;;;;4909902;28;20047;-70
2022/08/17 07:00:19;;;;;;;51.53;34.97;;;19.60;92.20;;;;;;4920486;29;20031;-70
2022/08/17 07:02:50;;;;;;;47.83;34.43;;;19.60;92.30;;;;;;4942228;28;20162;-70
2022/08/17 07:05:19;;;;;;;48.97;35.43;;;19.60;92.40;;;;;;4921909;28;20063;-70
2022/08/17 07:08:04;;;;;;;50.83;35.27;;;19.60;92.50;;;;;;4897877;28;20059;-70
2022/08/17 07:10:59;;;;;;;48.83;35.20;;;19.70;92.60;;;;;;4924704;28;20425;-70
2022/08/17 07:13:38;;;;;;;48.40;34.72;;;19.70;92.80;;;;;;4918912;29;20114;-70
2022/08/17 07:16:15;;;;;;;48.73;35.90;;;19.70;92.70;;;;;;4922663;28;20488;-69
2022/08/17 07:18:42;;;;;;;48.07;34.97;;;19.80;92.80;;;;;;4925907;28;20381;-69
2022/08/17 07:21:47;;;;;;;46.57;34.13;;;19.80;92.80;;;;;;4907409;29;20373;-69
2022/08/17 07:24:22;;;;;;;45.20;32.30;;;19.80;92.80;;;;;;4918136;28;20134;-69
2022/08/17 07:27:21;;;;;;;44.70;31.73;;;19.80;92.80;;;;;;4923501;28;20040;-69
2022/08/17 07:30:08;;;;;;;44.70;31.90;;;19.80;93.10;;;;;;4893726;28;20040;-69
2022/08/17 07:33:00;;;;;;;42.73;31.27;;;19.80;93.10;;;;;;4926878;28;20035;-69
2022/08/17 07:35:29;;;;;;;44.60;30.43;;;19.90;93.00;;;;;;4892099;28;20504;-69
2022/08/17 07:38:07;;;;;;;42.77;29.97;;;20.00;92.90;;;;;;4940270;29;20056;-69
2022/08/17 07:40:38;;;;;;;42.03;30.07;;;20.00;92.90;;;;;;4908122;29;20075;-69
2022/08/17 07:43:15;;;;;;;39.70;29.70;;;20.10;92.80;;;;;;4913187;29;20079;-69
2022/08/17 07:49:14;;;;;;;36.47;27.80;;;20.20;92.60;;;;;;4912509;29;20043;-69
2022/08/17 07:51:43;;;;;;;38.77;28.17;;;20.20;92.40;;;;;;4913103;29;20506;-69
2022/08/17 07:54:14;;;;;;;38.57;28.77;;;20.30;92.20;;;;;;4912774;29;20055;-69
2022/08/17 07:56:43;;;;;;;34.60;27.80;;;20.40;92.10;;;;;;4925437;29;20054;-68
2022/08/17 07:59:19;;;;;;;39.87;28.90;;;20.40;91.90;;;;;;4924638;29;20048;-68
2022/08/17 08:01:57;;;;;;;36.00;26.73;;;20.40;91.60;;;;;;4944099;28;20405;-68
2022/08/17 08:04:39;;;;;;;34.93;26.70;;;20.40;91.50;;;;;;4901140;29;20055;-68
2022/08/17 08:07:24;;;;;;;38.53;28.40;;;20.40;91.40;;;;;;4924217;29;20040;-69
2022/08/17 08:10:05;;;;;;;37.35;27.30;;;20.30;91.30;;;;;;4923617;29;20036;-68
2022/08/17 08:12:32;;;;;;;37.03;27.07;;;20.30;91.20;;;;;;4926318;29;20095;-68
2022/08/17 08:14:59;;;;;;;35.77;27.47;;;20.20;91.20;;;;;;4923304;29;20051;-68
2022/08/17 08:17:34;;;;;;;34.87;27.53;;;20.20;91.40;;;;;;4910679;29;20047;-68
2022/08/17 08:20:03;;;;;;;40.53;29.02;;;20.20;91.60;;;;;;4925984;29;20566;-70
2022/08/17 08:22:39;;;;;;;44.23;30.07;;;20.20;91.80;;;;;;4926417;29;20062;-70
2022/08/17 08:25:31;;;;;;;42.40;30.03;;;20.10;92.10;;;;;;4925014;29;20048;-70
2022/08/17 08:28:13;;;;;;;43.07;30.60;;;20.10;92.40;;;;;;4907887;29;20032;-71
2022/08/17 08:30:47;;;;;;;47.53;32.50;;;20.10;92.40;;;;;;4924939;29;20045;-71
2022/08/17 08:33:24;;;;;;;46.00;33.73;;;20.10;92.40;;;;;;4925056;29;20040;-70
2022/08/17 08:35:54;;;;;;;48.67;33.77;;;20.20;92.60;;;;;;4911762;29;20044;-70
2022/08/17 08:38:55;;;;;;;46.33;34.00;;;20.10;92.70;;;;;;4925194;29;20082;-70
2022/08/17 08:41:30;;;;;;;46.13;34.03;;;20.20;93.00;;;;;;4914255;29;20511;-71
2022/08/17 08:43:59;;;;;;;;;;;20.20;93.20;;;;;;4919204;29;20083;-71
2022/08/17 08:46:39;;;;;;;46.93;34.97;;;20.20;93.30;;;;;;4921719;29;19973;-71
2022/08/17 08:49:39;;;;;;;45.67;35.17;;;20.20;93.90;;;;;;4921489;29;20075;-71
2022/08/17 08:52:20;;;;;;;46.53;35.60;;;20.20;94.20;;;;;;4918924;29;20390;-72
2022/08/17 08:55:18;;;;;;;45.17;35.00;;;20.20;94.40;;;;;;4907426;29;20066;-71
2022/08/17 08:57:55;;;;;;;47.47;35.80;;;20.20;94.60;;;;;;4921703;29;20134;-72
2022/08/17 09:00:24;;;;;;;44.43;35.70;;;20.10;94.70;;;;;;4924135;29;20422;-72
2022/08/17 09:03:18;;;;;;;42.70;34.70;;;20.10;95.10;;;;;;4921955;29;20107;-72
2022/08/17 09:05:56;;;;;;;44.90;35.07;;;20.00;95.40;;;;;;4910934;29;20497;-72
2022/08/17 09:08:54;;;;;;;50.47;36.90;;;19.90;95.90;;;;;;4920177;29;20441;-72
2022/08/17 09:11:40;;;;;;;46.57;36.00;;;19.90;96.40;;;;;;4916597;29;20828;-73
2022/08/17 09:14:46;;;;;;;49.90;36.07;;;19.80;96.50;;;;;;4904377;29;20095;-73
2022/08/17 09:17:20;;;;;;;54.00;37.30;;;19.70;96.80;;;;;;4883967;29;20048;-72
2022/08/17 09:20:15;;;;;;;51.55;39.38;;;19.70;97.10;;;;;;4910380;29;20091;-73
2022/08/17 09:22:47;;;;;;;50.42;37.40;;;19.70;97.50;;;;;;4916141;29;20055;-73
2022/08/17 09:25:25;;;;;;;48.77;36.60;;;19.70;97.60;;;;;;4907365;29;20095;-72
2022/08/17 09:28:02;;;;;;;49.53;37.27;;;19.70;98.20;;;;;;4915893;29;20496;-72
2022/08/17 09:30:44;;;;;;;50.73;36.80;;;19.70;98.40;;;;;;4929613;29;20084;-72
2022/08/17 09:33:15;;;;;;;43.80;33.50;;;19.70;98.70;;;;;;4908438;29;20075;-73
2022/08/17 09:35:46;;;;;;;45.10;33.70;;;19.70;98.80;;;;;;4910134;29;20043;-73
2022/08/17 09:38:25;;;;;;;43.67;33.33;;;19.70;98.80;;;;;;4920641;29;20040;-73
2022/08/17 09:41:08;;;;;;;46.77;30.97;;;19.60;99.20;;;;;;4926085;29;20094;-73
2022/08/17 09:44:18;;;;;;;39.83;30.97;;;19.60;99.30;;;;;;4926629;29;20051;-72
2022/08/17 09:46:55;;;;;;;37.60;29.77;;;19.50;99.60;;;;;;4898297;29;20145;-73
2022/08/17 09:49:55;;;;;;;39.37;30.37;;;19.50;99.30;;;;;;4920151;29;20040;-73
2022/08/17 09:52:23;;;;;;;41.00;29.20;;;19.40;99.90;;;;;;4922452;29;20285;-73
2022/08/17 09:54:52;;;;;;;37.37;28.33;;;19.40;99.90;;;;;;4923086;29;20131;-71
2022/08/17 09:57:35;;;;;;;33.33;27.83;;;19.30;99.90;;;;;;4925149;29;20056;-71
2022/08/17 10:00:37;;;;;;;30.13;23.63;;;19.30;99.90;;;;;;4925705;29;20048;-71
2022/08/17 10:03:18;;;;;;;27.27;22.83;;;19.20;99.90;;;;;;4921838;29;20122;-72
2022/08/17 10:06:06;;;;;;;27.47;21.63;;;19.10;99.80;;;;;;4906416;29;20468;-72
2022/08/17 10:08:51;;;;;;;22.47;17.30;;;19.00;99.90;;;;;;4925132;29;20488;-72
2022/08/17 10:11:21;;;;;;;20.08;16.52;;;18.90;99.90;;;;;;4924202;29;20535;-72
2022/08/17 10:14:07;;;;;;;19.07;15.80;;;18.80;99.90;;;;;;4911030;29;20045;-72
2022/08/17 10:16:44;;;;;;;20.90;16.77;;;18.60;99.90;;;;;;4901372;29;20043;-72
2022/08/17 10:19:34;;;;;;;21.00;17.10;;;18.60;99.90;;;;;;4908436;29;20339;-73
2022/08/17 10:27:53;;;;;;;18.63;15.20;;;18.60;99.90;;;;;;4921018;29;20693;-71
2022/08/17 10:30:23;;;;;;;16.67;14.67;;;18.70;99.90;;;;;;4924511;29;20051;-71
2022/08/17 10:32:58;;;;;;;18.60;16.43;;;18.70;99.90;;;;;;4923462;29;20083;-71
2022/08/17 10:35:48;;;;;;;19.20;16.43;;;18.90;99.90;;;;;;4940242;28;20428;-71
2022/08/17 10:38:33;;;;;;;19.30;17.13;;;19.10;99.90;;;;;;4926323;29;20047;-71
2022/08/17 10:41:13;;;;;;;18.60;16.70;;;19.40;99.90;;;;;;4921874;29;20036;-71
2022/08/17 10:43:54;;;;;;;20.57;17.50;;;19.60;99.90;;;;;;4917698;29;20075;-71
2022/08/17 10:46:19;;;;;;;19.73;17.33;;;19.80;99.90;;;;;;4914935;28;20063;-70
2022/08/17 10:49:06;;;;;;;18.57;16.17;;;19.90;99.90;;;;;;4907190;29;20048;-70
2022/08/17 10:51:40;;;;;;;17.53;15.73;;;20.00;99.90;;;;;;4896067;29;20119;-70
2022/08/17 10:54:33;;;;;;;16.98;15.20;;;20.00;99.90;;;;;;4923083;29;20556;-71
2022/08/17 10:56:59;;;;;;;13.87;12.47;;;20.00;99.90;;;;;;4922957;29;20036;-71
2022/08/17 10:59:34;;;;;;;13.83;12.40;;;19.90;99.10;;;;;;4905201;29;20530;-71
2022/08/17 11:02:14;;;;;;;14.90;13.43;;;19.90;99.30;;;;;;4913194;29;20120;-71
2022/08/17 11:05:07;;;;;;;14.20;12.13;;;19.90;99.30;;;;;;4923141;29;20107;-71
2022/08/17 11:08:07;;;;;;;12.87;11.53;;;19.90;99.20;;;;;;4917864;29;20167;-70
2022/08/17 11:10:54;;;;;;;14.13;10.63;;;19.80;98.50;;;;;;4929624;29;20504;-70
2022/08/17 11:13:29;;;;;;;12.73;10.97;;;19.80;98.10;;;;;;4917361;29;20051;-70
2022/08/17 11:16:07;;;;;;;14.15;11.57;;;19.70;98.00;;;;;;4924921;29;20048;-70
2022/08/17 11:18:45;;;;;;;14.53;12.93;;;19.70;97.50;;;;;;4909999;29;20039;-70
2022/08/17 11:21:28;;;;;;;15.77;13.80;;;19.70;97.90;;;;;;4930475;29;20047;-70
2022/08/17 11:24:20;;;;;;;18.13;15.77;;;19.80;97.70;;;;;;4908150;29;20051;-70
2022/08/17 11:27:08;;;;;;;18.97;16.97;;;20.00;98.70;;;;;;4916331;29;20122;-71
2022/08/17 11:30:07;;;;;;;18.70;16.17;;;20.00;98.40;;;;;;4924875;29;20055;-71
2022/08/17 11:32:48;;;;;;;19.53;17.53;;;20.10;98.10;;;;;;4924247;29;20134;-69
2022/08/17 11:35:20;;;;;;;20.57;18.27;;;20.10;98.40;;;;;;4921830;29;20399;-70
2022/08/17 11:37:52;;;;;;;18.43;16.03;;;20.20;98.80;;;;;;4917229;29;20093;-70
2022/08/17 11:40:26;;;;;;;18.70;15.20;;;20.40;99.50;;;;;;4929970;29;20110;-70
2022/08/17 11:43:04;;;;;;;17.20;14.38;;;20.40;98.80;;;;;;4930220;29;20134;-69
2022/08/17 11:45:39;;;;;;;16.93;14.63;;;20.40;97.10;;;;;;4915136;29;20043;-70
2022/08/17 11:51:32;;;;;;;15.30;13.20;;;20.30;96.90;;;;;;4946761;28;20050;-69
2022/08/17 11:54:08;;;;;;;13.93;12.43;;;20.30;97.70;;;;;;4913153;29;20056;-69
2022/08/17 11:56:42;;;;;;;15.93;13.53;;;20.40;97.00;;;;;;4912333;29;20066;-69
2022/08/17 11:59:37;;;;;;;15.40;13.90;;;20.40;97.50;;;;;;4905142;29;20556;-70
2022/08/17 12:02:33;;;;;;;15.13;13.38;;;20.40;96.50;;;;;;4922463;29;20047;-70
2022/08/17 12:05:21;;;;;;;14.90;11.87;;;20.50;95.30;;;;;;4905129;29;20394;-70
2022/08/17 12:07:56;;;;;;;13.63;12.00;;;20.50;96.50;;;;;;4929026;29;20058;-70
2022/08/17 12:10:30;;;;;;;13.98;12.43;;;20.50;94.30;;;;;;4906526;29;20622;-70
2022/08/17 12:13:16;;;;;;;13.02;11.65;;;20.40;94.70;;;;;;4924648;29;20055;-70
2022/08/17 12:15:48;;;;;;;15.10;12.00;;;20.40;92.60;;;;;;4914596;29;20130;-70
2022/08/17 12:18:20;;;;;;;12.77;11.47;;;20.40;94.00;;;;;;4912075;29;20039;-68
2022/08/17 12:21:00;;;;;;;13.90;12.37;;;20.40;93.20;;;;;;4927284;29;20280;-69
2022/08/17 12:24:04;;;;;;;15.63;13.03;;;20.50;93.10;;;;;;4917220;29;20047;-70
2022/08/17 12:26:33;;;;;;;16.67;14.60;;;20.60;93.30;;;;;;4919666;29;20490;-69
2022/08/17 12:29:05;;;;;;;18.33;13.77;;;20.70;93.60;;;;;;4920430;29;20036;-69
2022/08/17 12:31:43;;;;;;;16.80;12.67;;;20.80;93.80;;;;;;4924187;29;20098;-69
2022/08/17 12:34:25;;;;;;;16.60;12.73;;;21.00;93.70;;;;;;4929054;29;20043;-69
2022/08/17 12:37:01;;;;;;;14.63;13.07;;;21.10;93.10;;;;;;4917884;29;20043;-69
2022/08/17 12:39:29;;;;;;;15.93;12.20;;;21.20;92.60;;;;;;4905474;29;20051;-69
2022/08/17 12:41:57;;;;;;;15.53;11.93;;;21.30;91.60;;;;;;4925066;29;20067;-69
2022/08/17 12:44:35;;;;;;;14.00;11.50;;;21.50;90.80;;;;;;4943529;28;20055;-69
2022/08/17 12:47:22;;;;;;;16.10;12.80;;;21.60;90.00;;;;;;4920637;29;20047;-69
2022/08/17 12:49:53;;;;;;;15.27;12.53;;;21.70;89.30;;;;;;4918602;29;20078;-70
2022/08/17 12:52:23;;;;;;;14.73;12.70;;;21.80;88.40;;;;;;4928002;29;20066;-70
2022/08/17 12:55:05;;;;;;;13.30;11.90;;;21.80;88.20;;;;;;4918861;29;20063;-70
2022/08/17 12:57:37;;;;;;;16.37;11.60;;;21.90;88.60;;;;;;4906384;29;20040;-70
2022/08/17 13:00:18;;;;;;;14.40;12.00;;;22.00;88.20;;;;;;4911147;29;20062;-69
2022/08/17 13:02:59;;;;;;;14.60;12.20;;;21.90;86.90;;;;;;4935986;29;20233;-69
2022/08/17 13:05:50;;;;;;;14.47;11.53;;;21.90;86.90;;;;;;4906484;29;20052;-69
2022/08/17 13:08:40;;;;;;;15.97;12.63;;;21.80;87.10;;;;;;4908079;29;20095;-69
2022/08/17 13:11:17;;;;;;;15.03;12.20;;;21.70;87.80;;;;;;4902897;29;20184;-70
2022/08/17 13:13:46;;;;;;;15.67;12.10;;;21.70;87.00;;;;;;4916842;29;20067;-69
2022/08/17 13:16:13;;;;;;;13.07;11.27;;;21.70;87.10;;;;;;4925769;29;20055;-69
2022/08/17 13:18:54;;;;;;;13.73;11.93;;;21.60;86.60;;;;;;4924161;29;20508;-69
2022/08/17 13:21:22;;;;;;;14.20;11.17;;;21.60;86.10;;;;;;4923026;29;20047;-69
2022/08/17 13:24:09;;;;;;;15.87;12.17;;;21.60;86.40;;;;;;4902760;29;20576;-69
2022/08/17 13:26:39;;;;;;;11.90;10.70;;;21.60;86.80;;;;;;4922475;29;20063;-69
2022/08/17 13:29:18;;;;;;;16.33;11.50;;;21.60;85.70;;;;;;4909336;29;20036;-68
2022/08/17 13:31:43;;;;;;;14.67;12.40;;;21.70;86.40;;;;;;4924879;29;20035;-69
2022/08/17 13:34:25;;;;;;;14.63;12.57;;;21.70;85.60;;;;;;4909458;29;20107;-69